createdAt,value
2023-02-27T00:00:20.910Z,2.73
2023-02-27T00:02:51.434Z,2.80
2023-02-27T00:05:20.122Z,3.40
2023-02-27T00:07:47.585Z,3.33
2023-02-27T00:10:16.129Z,3.00
2023-02-27T00:12:45.630Z,2.83
2023-02-27T00:15:16.530Z,2.83
2023-02-27T00:17:44.691Z,3.00
2023-02-27T00:20:14.949Z,3.10
2023-02-27T00:22:43.299Z,3.10
2023-02-27T00:25:11.749Z,3.67
2023-02-27T00:27:39.268Z,3.00
2023-02-27T00:30:12.372Z,3.00
2023-02-27T00:32:40.526Z,3.30
2023-02-27T00:35:11.333Z,2.90
2023-02-27T00:37:39.692Z,3.20
2023-02-27T00:40:09.043Z,3.20
2023-02-27T00:42:36.807Z,4.30
2023-02-27T00:45:05.710Z,2.80
2023-02-27T00:47:35.391Z,4.10
2023-02-27T00:50:02.972Z,3.40
2023-02-27T00:52:30.522Z,2.90
2023-02-27T00:54:58.026Z,2.67
2023-02-27T00:57:25.512Z,3.20
2023-02-27T00:59:53.031Z,2.63
2023-02-27T01:02:20.623Z,2.70
2023-02-27T01:04:49.455Z,2.87
2023-02-27T01:07:16.944Z,2.80
2023-02-27T01:09:44.642Z,4.20
2023-02-27T01:12:12.203Z,4.27
2023-02-27T01:14:39.767Z,3.57
2023-02-27T01:17:07.398Z,3.17
2023-02-27T01:19:34.861Z,3.00
2023-02-27T01:22:03.841Z,2.73
2023-02-27T01:24:31.632Z,2.83
2023-02-27T01:26:59.176Z,2.70
2023-02-27T01:29:26.948Z,2.97
2023-02-27T01:31:54.589Z,2.80
2023-02-27T01:34:22.228Z,2.90
2023-02-27T01:36:49.739Z,3.03
2023-02-27T01:39:18.673Z,3.93
2023-02-27T01:41:46.139Z,3.47
2023-02-27T01:44:14.946Z,3.17
2023-02-27T01:46:42.931Z,3.07
2023-02-27T01:49:16.094Z,2.93
2023-02-27T01:51:47.786Z,2.57
2023-02-27T01:54:20.349Z,2.77
2023-02-27T01:56:48.485Z,2.43
2023-02-27T01:59:17.385Z,3.00
2023-02-27T02:01:45.526Z,3.07
2023-02-27T02:04:19.481Z,2.90
2023-02-27T02:06:51.470Z,3.30
2023-02-27T02:09:22.508Z,3.70
2023-02-27T02:11:50.136Z,3.97
2023-02-27T02:14:17.660Z,3.83
2023-02-27T02:17:06.524Z,4.40
2023-02-27T02:20:16.170Z,4.27
2023-02-27T02:23:07.408Z,4.77
2023-02-27T02:26:11.450Z,4.60
2023-02-27T02:29:17.553Z,6.60
2023-02-27T02:32:13.274Z,8.27
2023-02-27T02:35:22.828Z,9.37
2023-02-27T02:38:29.617Z,9.53
2023-02-27T02:41:06.328Z,8.80
2023-02-27T02:43:42.576Z,9.83
2023-02-27T02:46:15.438Z,10.57
2023-02-27T02:48:48.392Z,7.67
2023-02-27T02:51:21.347Z,6.20
2023-02-27T02:53:56.841Z,5.60
2023-02-27T02:56:29.149Z,6.43
2023-02-27T02:59:02.223Z,5.53
2023-02-27T03:01:37.050Z,7.10
2023-02-27T03:04:09.301Z,6.03
2023-02-27T03:06:41.601Z,7.27
2023-02-27T03:09:17.245Z,6.03
2023-02-27T03:11:48.519Z,5.83
2023-02-27T03:14:22.489Z,6.43
2023-02-27T03:16:54.392Z,6.43
2023-02-27T03:19:25.832Z,6.20
2023-02-27T03:21:59.737Z,7.77
2023-02-27T03:24:33.460Z,7.97
2023-02-27T03:27:03.321Z,8.13
2023-02-27T03:29:38.258Z,7.17
2023-02-27T03:32:12.196Z,6.57
2023-02-27T03:34:42.614Z,6.20
2023-02-27T03:37:21.951Z,7.17
2023-02-27T03:39:55.160Z,7.00
2023-02-27T03:42:30.796Z,5.53
2023-02-27T03:45:05.350Z,8.47
2023-02-27T03:47:34.256Z,6.87
2023-02-27T03:50:01.760Z,7.47
2023-02-27T03:52:30.536Z,8.00
2023-02-27T03:55:04.424Z,8.07
2023-02-27T03:57:32.926Z,7.33
2023-02-27T04:00:00.645Z,8.67
2023-02-27T04:02:29.028Z,8.93
2023-02-27T04:04:56.649Z,7.47
2023-02-27T04:07:34.710Z,7.43
2023-02-27T04:10:27.844Z,8.07
2023-02-27T04:13:32.599Z,6.93
2023-02-27T04:16:19.033Z,7.67
2023-02-27T04:18:59.805Z,8.10
2023-02-27T04:21:35.826Z,9.23
2023-02-27T04:24:13.404Z,7.87
2023-02-27T04:26:47.561Z,8.60
2023-02-27T04:29:18.459Z,7.70
2023-02-27T04:31:55.325Z,8.43
2023-02-27T04:34:30.792Z,8.40
2023-02-27T04:37:02.839Z,4.70
2023-02-27T04:39:34.182Z,6.33
2023-02-27T04:42:06.671Z,5.17
2023-02-27T04:44:37.095Z,5.83
2023-02-27T04:47:08.212Z,12.13
2023-02-27T04:49:39.241Z,6.10
2023-02-27T04:52:13.784Z,6.00
2023-02-27T04:54:46.069Z,6.27
2023-02-27T04:57:21.721Z,7.20
2023-02-27T04:59:53.437Z,7.20
2023-02-27T05:02:25.293Z,6.60
2023-02-27T05:04:57.776Z,7.40
2023-02-27T05:07:30.438Z,6.43
2023-02-27T05:10:02.663Z,6.70
2023-02-27T05:12:36.215Z,6.03
2023-02-27T05:15:09.985Z,6.33
2023-02-27T05:17:41.980Z,6.23
2023-02-27T05:20:13.001Z,7.03
2023-02-27T05:22:47.947Z,6.57
2023-02-27T05:25:24.830Z,6.20
2023-02-27T05:27:58.937Z,5.53
2023-02-27T05:30:34.984Z,4.70
2023-02-27T05:33:07.658Z,5.60
2023-02-27T05:35:39.505Z,5.47
2023-02-27T05:38:12.998Z,5.97
2023-02-27T05:40:45.260Z,8.13
2023-02-27T05:43:19.547Z,5.43
2023-02-27T05:45:51.447Z,5.23
2023-02-27T05:48:25.496Z,5.57
2023-02-27T05:50:54.217Z,5.90
2023-02-27T05:53:25.600Z,4.70
2023-02-27T05:55:55.288Z,5.30
2023-02-27T05:58:27.698Z,4.53
2023-02-27T06:00:59.088Z,4.27
2023-02-27T06:03:28.264Z,4.70
2023-02-27T06:05:58.124Z,4.80
2023-02-27T06:08:26.383Z,4.37
2023-02-27T06:10:55.189Z,3.63
2023-02-27T06:13:25.932Z,4.13
2023-02-27T06:15:54.004Z,4.50
2023-02-27T06:18:21.748Z,4.20
2023-02-27T06:20:49.884Z,4.37
2023-02-27T06:23:17.589Z,9.23
2023-02-27T06:25:45.313Z,6.20
2023-02-27T06:28:13.014Z,5.20
2023-02-27T06:30:42.007Z,5.13
2023-02-27T06:33:09.671Z,5.57
2023-02-27T06:35:37.157Z,4.40
2023-02-27T06:38:05.144Z,7.10
2023-02-27T06:40:32.584Z,4.60
2023-02-27T06:43:00.048Z,5.77
2023-02-27T06:45:27.538Z,5.33
2023-02-27T06:47:56.316Z,4.63
2023-02-27T06:50:23.880Z,4.10
2023-02-27T06:52:51.335Z,4.33
2023-02-27T06:55:20.773Z,4.60
2023-02-27T06:57:48.541Z,3.93
2023-02-27T07:00:17.971Z,4.17
2023-02-27T07:02:45.807Z,4.87
2023-02-27T07:05:14.618Z,4.70
2023-02-27T07:07:42.120Z,4.30
2023-02-27T07:10:12.662Z,3.97
2023-02-27T07:12:40.496Z,4.77
2023-02-27T07:15:09.037Z,4.80
2023-02-27T07:17:37.774Z,3.70
2023-02-27T07:20:06.512Z,7.40
2023-02-27T07:22:35.700Z,4.33
2023-02-27T07:25:03.232Z,4.00
2023-02-27T07:27:30.810Z,4.00
2023-02-27T07:29:58.318Z,4.20
2023-02-27T07:32:25.859Z,3.80
2023-02-27T07:34:53.454Z,3.50
2023-02-27T07:37:21.128Z,4.27
2023-02-27T07:39:50.536Z,4.17
2023-02-27T07:42:18.091Z,4.80
2023-02-27T07:44:45.563Z,3.13
2023-02-27T07:47:13.034Z,3.30
2023-02-27T07:49:40.497Z,3.57
2023-02-27T07:52:08.304Z,3.03
2023-02-27T07:54:37.462Z,4.93
2023-02-27T07:57:06.650Z,4.73
2023-02-27T07:59:34.112Z,4.93
2023-02-27T08:02:01.645Z,4.90
2023-02-27T08:04:29.147Z,4.53
2023-02-27T08:06:57.304Z,4.03
2023-02-27T08:09:24.770Z,4.70
2023-02-27T08:11:52.232Z,5.40
2023-02-27T08:14:21.064Z,3.60
2023-02-27T08:16:48.544Z,5.90
2023-02-27T08:19:16.151Z,3.63
2023-02-27T08:21:43.790Z,3.67
2023-02-27T08:24:11.653Z,2.70
2023-02-27T08:26:39.238Z,3.60
2023-02-27T08:29:06.889Z,2.90
2023-02-27T08:31:36.183Z,2.47
2023-02-27T08:34:10.127Z,3.27
2023-02-27T08:36:38.794Z,3.40
2023-02-27T08:39:06.692Z,2.90
2023-02-27T08:41:34.305Z,2.90
2023-02-27T08:44:01.789Z,3.10
2023-02-27T08:46:29.731Z,2.43
2023-02-27T08:48:58.748Z,3.00
2023-02-27T08:51:26.631Z,3.20
2023-02-27T08:53:55.877Z,2.87
2023-02-27T08:56:23.350Z,2.60
2023-02-27T08:58:50.836Z,2.27
2023-02-27T09:01:18.763Z,2.53
2023-02-27T09:03:46.271Z,2.93
2023-02-27T09:06:15.090Z,2.77
2023-02-27T09:08:42.548Z,2.70
2023-02-27T09:11:10.010Z,2.43
2023-02-27T09:13:37.476Z,2.30
2023-02-27T09:16:05.341Z,2.50
2023-02-27T09:18:32.812Z,2.40
2023-02-27T09:21:01.042Z,2.10
2023-02-27T09:23:29.890Z,2.30
2023-02-27T09:25:57.385Z,2.83
2023-02-27T09:28:24.840Z,2.67
2023-02-27T09:30:52.319Z,3.20
2023-02-27T09:33:19.843Z,2.73
2023-02-27T09:35:47.331Z,2.80
2023-02-27T09:38:14.794Z,3.20
2023-02-27T09:40:45.605Z,2.83
2023-02-27T09:43:17.946Z,2.47
2023-02-27T09:45:47.946Z,2.83
2023-02-27T09:48:26.867Z,2.70
2023-02-27T09:50:54.596Z,2.40
2023-02-27T09:53:27.312Z,2.70
2023-02-27T09:56:01.217Z,2.60
2023-02-27T09:58:42.481Z,2.67
2023-02-27T10:01:16.876Z,3.33
2023-02-27T10:04:02.953Z,2.70
2023-02-27T10:06:37.374Z,3.03
2023-02-27T10:09:17.253Z,2.33
2023-02-27T10:11:57.339Z,2.53
2023-02-27T10:14:33.440Z,2.53
2023-02-27T10:17:06.551Z,2.17
2023-02-27T10:19:38.079Z,2.20
2023-02-27T10:22:11.036Z,2.10
2023-02-27T10:24:43.601Z,2.27
2023-02-27T10:27:19.383Z,2.00
2023-02-27T10:29:47.076Z,1.90
2023-02-27T10:32:18.485Z,1.70
2023-02-27T10:34:49.939Z,2.20
2023-02-27T10:37:21.811Z,2.50
2023-02-27T10:39:52.695Z,2.50
2023-02-27T10:42:23.369Z,2.60
2023-02-27T10:44:53.534Z,2.40
2023-02-27T10:47:23.674Z,2.93
2023-02-27T10:49:52.030Z,2.57
2023-02-27T10:52:20.027Z,2.87
2023-02-27T10:54:48.403Z,1.83
2023-02-27T10:57:30.307Z,1.90
2023-02-27T11:00:00.232Z,1.83
2023-02-27T11:02:33.746Z,1.77
2023-02-27T11:05:01.532Z,1.93
2023-02-27T11:07:33.201Z,2.03
2023-02-27T11:10:03.668Z,2.40
2023-02-27T11:12:35.282Z,2.33
2023-02-27T11:15:21.716Z,2.00
2023-02-27T11:17:49.222Z,2.30
2023-02-27T11:20:35.379Z,2.30
2023-02-27T11:23:05.748Z,2.03
2023-02-27T11:25:33.951Z,2.13
2023-02-27T11:28:21.078Z,1.93
2023-02-27T11:30:58.876Z,2.20
2023-02-27T11:33:27.357Z,1.90
2023-02-27T11:35:58.507Z,2.30
2023-02-27T11:38:29.721Z,2.10
2023-02-27T11:40:59.222Z,2.00
2023-02-27T11:43:31.012Z,2.57
2023-02-27T11:46:16.247Z,2.13
2023-02-27T11:48:51.547Z,2.00
2023-02-27T11:51:30.782Z,1.93
2023-02-27T11:54:15.606Z,1.90
2023-02-27T11:56:46.950Z,2.17
2023-02-27T11:59:26.601Z,1.77
2023-02-27T12:02:00.316Z,1.80
2023-02-27T12:04:35.912Z,1.80
2023-02-27T12:07:11.614Z,2.00
2023-02-27T12:09:45.202Z,1.80
2023-02-27T12:12:21.512Z,1.90
2023-02-27T12:14:58.508Z,2.10
2023-02-27T12:17:30.402Z,1.90
2023-02-27T12:20:32.871Z,1.97
2023-02-27T12:23:04.234Z,2.00
2023-02-27T12:25:39.170Z,2.17
2023-02-27T12:28:20.050Z,2.77
2023-02-27T12:31:01.675Z,2.20
2023-02-27T12:33:37.291Z,2.33
2023-02-27T12:36:06.158Z,2.03
2023-02-27T12:38:35.960Z,2.10
2023-02-27T12:41:27.594Z,2.20
2023-02-27T12:44:07.998Z,2.20
2023-02-27T12:46:47.842Z,2.13
2023-02-27T12:49:36.868Z,2.60
2023-02-27T12:52:19.833Z,2.07
2023-02-27T12:55:02.617Z,2.27
2023-02-27T12:57:56.648Z,2.07
2023-02-27T13:00:30.038Z,3.23
2023-02-27T13:03:05.659Z,2.17
2023-02-27T13:05:40.478Z,2.10
2023-02-27T13:08:25.912Z,2.13
2023-02-27T13:11:01.856Z,3.00
2023-02-27T13:13:37.139Z,2.30
2023-02-27T13:16:08.079Z,2.47
2023-02-27T13:18:45.365Z,2.27
2023-02-27T13:21:16.641Z,2.30
2023-02-27T13:23:58.255Z,1.30
2023-02-27T13:26:29.952Z,2.23
2023-02-27T13:28:59.022Z,2.00
2023-02-27T13:31:37.097Z,1.83
2023-02-27T13:34:15.570Z,2.47
2023-02-27T13:36:46.256Z,2.43
2023-02-27T13:39:52.520Z,1.80
2023-02-27T13:42:53.937Z,1.90
2023-02-27T13:45:48.394Z,2.33
2023-02-27T13:48:41.959Z,1.80
2023-02-27T13:51:27.298Z,2.37
2023-02-27T13:54:09.819Z,2.97
2023-02-27T13:56:37.758Z,2.40
2023-02-27T13:59:12.981Z,2.10
2023-02-27T14:01:40.972Z,2.13
2023-02-27T14:04:08.873Z,2.07
2023-02-27T14:06:45.678Z,2.70
2023-02-27T14:09:18.060Z,1.93
2023-02-27T14:11:54.939Z,2.43
2023-02-27T14:14:45.960Z,2.20
2023-02-27T14:17:15.527Z,2.10
2023-02-27T14:19:57.002Z,2.10
2023-02-27T14:22:37.178Z,2.10
2023-02-27T14:25:16.939Z,1.90
2023-02-27T14:27:52.570Z,2.53
2023-02-27T14:30:44.281Z,2.20
2023-02-27T14:33:33.430Z,2.53
2023-02-27T14:36:10.645Z,2.67
2023-02-27T14:38:39.667Z,1.70
2023-02-27T14:41:16.793Z,2.27
2023-02-27T14:43:45.900Z,2.40
2023-02-27T14:46:22.888Z,2.03
2023-02-27T14:48:54.688Z,2.17
2023-02-27T14:51:22.654Z,2.40
2023-02-27T14:54:02.962Z,2.13
2023-02-27T14:56:30.565Z,2.20
2023-02-27T14:59:04.286Z,2.30
2023-02-27T15:01:36.763Z,2.27
2023-02-27T15:04:07.852Z,2.47
2023-02-27T15:06:42.776Z,2.47
2023-02-27T15:09:22.604Z,3.37
2023-02-27T15:12:02.648Z,1.90
2023-02-27T15:14:34.274Z,2.33
2023-02-27T15:17:02.285Z,2.27
2023-02-27T15:19:31.254Z,2.40
2023-02-27T15:22:00.389Z,1.93
2023-02-27T15:24:35.287Z,2.57
2023-02-27T15:27:16.515Z,2.57
2023-02-27T15:29:46.376Z,2.30
2023-02-27T15:32:18.656Z,2.30
2023-02-27T15:34:47.610Z,2.57
2023-02-27T15:37:22.007Z,2.43
2023-02-27T15:39:53.538Z,2.37
2023-02-27T15:42:25.212Z,2.60
2023-02-27T15:44:53.370Z,2.07
2023-02-27T15:47:24.934Z,2.27
2023-02-27T15:49:57.105Z,2.40
2023-02-27T15:52:26.478Z,2.40
2023-02-27T15:55:02.268Z,2.47
2023-02-27T15:57:30.623Z,2.43
2023-02-27T15:59:59.467Z,2.07
2023-02-27T16:02:29.861Z,2.47
2023-02-27T16:04:58.030Z,2.60
2023-02-27T16:07:28.479Z,2.50
2023-02-27T16:10:03.948Z,2.73
2023-02-27T16:12:34.022Z,2.67
2023-02-27T16:15:22.852Z,2.20
2023-02-27T16:17:55.526Z,2.37
2023-02-27T16:20:32.505Z,2.67
2023-02-27T16:23:03.585Z,2.40
2023-02-27T16:25:32.860Z,2.07
2023-02-27T16:28:00.580Z,2.40
2023-02-27T16:30:28.620Z,1.90
2023-02-27T16:33:01.824Z,1.90
2023-02-27T16:35:30.269Z,2.40
2023-02-27T16:38:01.813Z,1.93
2023-02-27T16:40:30.049Z,2.50
2023-02-27T16:42:59.109Z,2.17
2023-02-27T16:45:28.657Z,2.17
2023-02-27T16:47:58.230Z,2.30
2023-02-27T16:50:30.800Z,2.20
2023-02-27T16:52:58.518Z,2.20
2023-02-27T16:55:26.902Z,2.00
2023-02-27T16:57:54.651Z,2.10
2023-02-27T17:00:23.666Z,2.10
2023-02-27T17:02:51.626Z,1.90
2023-02-27T17:05:19.941Z,2.03
2023-02-27T17:07:48.626Z,1.80
2023-02-27T17:10:18.736Z,2.20
2023-02-27T17:12:46.907Z,2.20
2023-02-27T17:15:14.887Z,2.30
2023-02-27T17:17:44.506Z,2.43
2023-02-27T17:20:13.985Z,2.40
2023-02-27T17:22:43.803Z,1.93
2023-02-27T17:25:13.260Z,2.23
2023-02-27T17:27:42.782Z,2.30
2023-02-27T17:30:11.494Z,2.50
2023-02-27T17:32:40.082Z,2.77
2023-02-27T17:35:09.880Z,2.60
2023-02-27T17:37:37.482Z,2.73
2023-02-27T17:40:05.560Z,2.63
2023-02-27T17:42:33.143Z,2.50
2023-02-27T17:45:01.202Z,3.20
2023-02-27T17:47:28.705Z,2.80
2023-02-27T17:49:56.163Z,2.60
2023-02-27T17:52:24.995Z,2.20
2023-02-27T17:54:52.519Z,2.50
2023-02-27T17:57:20.743Z,2.87
2023-02-27T17:59:48.202Z,2.63
2023-02-27T18:02:16.114Z,2.80
2023-02-27T18:04:43.652Z,2.67
2023-02-27T18:07:11.107Z,2.50
2023-02-27T18:09:39.924Z,2.90
2023-02-27T18:12:07.442Z,4.53
2023-02-27T18:14:35.919Z,3.40
2023-02-27T18:17:03.446Z,3.50
2023-02-27T18:19:32.560Z,3.90
2023-02-27T18:22:00.540Z,2.80
2023-02-27T18:24:28.005Z,3.20
2023-02-27T18:26:56.798Z,2.80
2023-02-27T18:29:24.238Z,2.80
2023-02-27T18:31:53.935Z,2.93
2023-02-27T18:34:21.498Z,3.30
2023-02-27T18:36:49.082Z,6.63
2023-02-27T18:39:16.565Z,3.27
2023-02-27T18:41:44.576Z,2.80
2023-02-27T18:44:13.371Z,2.90
2023-02-27T18:46:40.851Z,2.80
2023-02-27T18:49:09.030Z,4.63
2023-02-27T18:51:37.152Z,3.83
2023-02-27T18:54:06.822Z,5.80
2023-02-27T18:56:34.351Z,3.87
2023-02-27T18:59:05.107Z,6.10
2023-02-27T19:01:36.621Z,3.20
2023-02-27T19:04:06.269Z,3.07
2023-02-27T19:06:35.171Z,3.13
2023-02-27T19:09:04.951Z,2.87
2023-02-27T19:11:33.899Z,3.00
2023-02-27T19:14:01.877Z,2.83
2023-02-27T19:16:30.116Z,3.70
2023-02-27T19:19:01.473Z,3.63
2023-02-27T19:21:29.807Z,2.80
2023-02-27T19:23:57.743Z,3.50
2023-02-27T19:26:25.835Z,3.50
2023-02-27T19:28:54.568Z,3.73
2023-02-27T19:31:24.384Z,3.50
2023-02-27T19:33:52.761Z,3.50
2023-02-27T19:36:23.062Z,2.77
2023-02-27T19:38:50.988Z,2.60
2023-02-27T19:41:19.318Z,3.30
2023-02-27T19:43:47.927Z,3.10
2023-02-27T19:46:17.385Z,2.90
2023-02-27T19:48:45.358Z,2.80
2023-02-27T19:51:14.885Z,3.20
2023-02-27T19:53:45.358Z,3.13
2023-02-27T19:56:15.098Z,2.77
2023-02-27T19:58:42.597Z,3.93
2023-02-27T20:01:10.761Z,4.50
2023-02-27T20:03:41.858Z,5.30
2023-02-27T20:06:16.702Z,6.90
2023-02-27T20:08:45.586Z,11.87
2023-02-27T20:11:15.570Z,12.27
2023-02-27T20:13:43.046Z,8.43
2023-02-27T20:16:13.703Z,10.10
2023-02-27T20:18:42.526Z,3.03
2023-02-27T20:21:13.035Z,3.20
2023-02-27T20:23:42.327Z,4.57
2023-02-27T20:26:19.771Z,4.10
2023-02-27T20:28:48.523Z,3.00
2023-02-27T20:31:18.775Z,2.93
2023-02-27T20:33:46.369Z,3.00
2023-02-27T20:36:14.692Z,3.27
2023-02-27T20:38:42.572Z,3.40
2023-02-27T20:41:12.231Z,3.00
2023-02-27T20:43:43.233Z,3.30
2023-02-27T20:46:12.560Z,3.30
2023-02-27T20:48:40.801Z,3.50
2023-02-27T20:51:10.861Z,3.13
2023-02-27T20:53:40.589Z,3.63
2023-02-27T20:56:09.221Z,2.97
2023-02-27T20:58:37.442Z,3.57
2023-02-27T21:01:10.992Z,3.67
2023-02-27T21:03:39.828Z,3.30
2023-02-27T21:06:08.634Z,3.90
2023-02-27T21:08:37.087Z,3.50
2023-02-27T21:11:08.985Z,3.23
2023-02-27T21:13:37.165Z,3.37
2023-02-27T21:16:05.414Z,3.13
2023-02-27T21:18:34.758Z,4.27
2023-02-27T21:21:03.817Z,4.60
2023-02-27T21:23:31.302Z,4.30
2023-02-27T21:25:58.984Z,4.33
2023-02-27T21:28:26.958Z,3.40
2023-02-27T21:30:54.937Z,4.03
2023-02-27T21:33:23.009Z,3.70
2023-02-27T21:35:51.840Z,3.70
2023-02-27T21:38:19.320Z,5.03
2023-02-27T21:40:46.763Z,5.40
2023-02-27T21:43:14.219Z,5.73
2023-02-27T21:45:47.305Z,5.50
2023-02-27T21:48:16.046Z,5.93
2023-02-27T21:50:43.595Z,5.90
2023-02-27T21:53:12.430Z,5.13
2023-02-27T21:55:39.894Z,5.70
2023-02-27T21:58:10.073Z,5.27
2023-02-27T22:00:37.598Z,6.13
2023-02-27T22:03:05.168Z,5.40
2023-02-27T22:05:32.734Z,5.40
2023-02-27T22:08:00.259Z,5.23
2023-02-27T22:10:29.106Z,5.83
2023-02-27T22:12:56.525Z,5.23
2023-02-27T22:15:23.997Z,5.20
2023-02-27T22:17:54.541Z,4.80
2023-02-27T22:20:22.054Z,4.70
2023-02-27T22:22:49.545Z,4.50
2023-02-27T22:25:17.131Z,4.53
2023-02-27T22:27:45.940Z,4.00
2023-02-27T22:30:14.510Z,4.70
2023-02-27T22:32:42.016Z,3.07
2023-02-27T22:35:09.855Z,4.90
2023-02-27T22:37:37.334Z,4.27
2023-02-27T22:40:05.470Z,4.23
2023-02-27T22:42:33.157Z,4.80
2023-02-27T22:45:02.032Z,4.23
2023-02-27T22:47:29.676Z,4.00
2023-02-27T22:49:57.155Z,3.13
2023-02-27T22:52:24.616Z,4.70
2023-02-27T22:54:52.934Z,4.60
2023-02-27T22:57:20.419Z,4.47
2023-02-27T22:59:50.713Z,4.17
2023-02-27T23:02:19.527Z,4.67
2023-02-27T23:04:46.975Z,4.00
2023-02-27T23:07:14.454Z,4.63
2023-02-27T23:09:42.013Z,4.10
2023-02-27T23:12:09.466Z,4.00
2023-02-27T23:14:36.927Z,4.23
2023-02-27T23:17:04.412Z,4.50
2023-02-27T23:19:34.030Z,4.87
2023-02-27T23:22:01.469Z,4.30
2023-02-27T23:24:28.947Z,4.70
2023-02-27T23:26:56.457Z,4.73
2023-02-27T23:29:23.922Z,5.10
2023-02-27T23:31:51.515Z,5.10
2023-02-27T23:34:19.080Z,4.10
2023-02-27T23:36:48.000Z,5.40
2023-02-27T23:39:15.520Z,4.90
2023-02-27T23:41:43.053Z,5.10
2023-02-27T23:44:10.548Z,4.73
2023-02-27T23:46:38.876Z,5.27
2023-02-27T23:49:06.406Z,4.60
2023-02-27T23:51:34.251Z,5.17
2023-02-27T23:54:03.457Z,5.40
2023-02-27T23:56:31.484Z,5.63
2023-02-27T23:59:00.959Z,4.50
